Weather at Střemy Airstrip [CLOSED]

Public forecast

Using degrees Celsius for public forecast. Weather courtesy of forecast.io.

Closest aviation weather report (METAR) to Střemy Airstrip

Report is more than 6 hours old.

Closest report is Vodochody Airport, 12.3 nm (22.7 km) SW.

2024/02/29 15:00 (retrieved 1 day ago)

LKVO 291500Z 09005KT 4500 BR OVC020 06/04 Q1015

Closest aviation forecast (TAF) to Střemy Airstrip

Closest forecast is Kbely Air Base, 15.9 nm (29.4 km) S.

2024/03/01 12:00 (retrieved 5 hours ago)

TAF LKKB 011100Z 0112/0212 VRB02KT 4000 BR BKN005 BECMG 0112/0115 7000 BKN010 TEMPO 0112/0117 SCT025 BECMG 0114/0116 15008KT BECMG 0115/0117 BKN020 TEMPO 0117/0204 18005KT 4000 RA BR BKN010 TEMPO 0120/0204 1500 DZ BR OVC005 PROB30 TEMPO 0122/0203 0700 FG VV002